createdAt,value
2018-06-29T01:48:27.344Z,13.20
2018-06-29T01:50:29.926Z,12.53
2018-06-29T01:52:39.271Z,27.53
2018-06-29T01:54:42.222Z,196.50
2018-06-29T01:56:44.937Z,177.40
2018-06-29T01:58:47.815Z,115.00
2018-06-29T02:00:50.802Z,115.23
2018-06-29T02:02:54.117Z,85.93
2018-06-29T02:04:56.988Z,73.27
2018-06-29T02:07:00.417Z,65.43
2018-06-29T02:09:04.136Z,57.17
2018-06-29T02:11:06.907Z,55.67
2018-06-29T02:13:10.205Z,50.07
2018-06-29T02:15:13.664Z,48.03
2018-06-29T02:17:16.609Z,43.13
2018-06-29T02:19:21.113Z,40.97
2018-06-29T02:21:23.935Z,37.90
2018-06-29T02:23:26.828Z,38.90
2018-06-29T02:27:47.380Z,31.83
2018-06-29T02:29:50.299Z,32.73
2018-06-29T02:31:53.580Z,29.83
2018-06-29T02:33:57.203Z,29.20
2018-06-29T02:38:28.402Z,26.83
2018-06-29T02:40:31.251Z,24.53
2018-06-29T02:42:34.195Z,23.47
2018-06-29T02:49:33.073Z,18.47
2018-06-29T03:16:16.707Z,14.43
2018-06-29T03:33:17.084Z,13.13
2018-06-29T03:45:13.092Z,11.77
2018-06-29T04:11:59.117Z,10.07
2018-06-29T04:26:25.074Z,10.20
2018-06-29T05:25:09.165Z,8.57
2018-06-29T06:19:02.854Z,11.50
2018-06-29T06:28:29.913Z,11.00
2018-06-29T07:27:20.572Z,9.07
2018-06-29T08:21:18.550Z,8.00
2018-06-29T08:23:23.786Z,8.77
2018-06-29T08:25:27.611Z,9.07
2018-06-29T08:27:31.645Z,9.20
2018-06-29T08:37:04.551Z,8.40
2018-06-29T08:49:05.450Z,9.73
2018-06-29T09:03:41.237Z,8.93
2018-06-29T09:05:44.056Z,10.13
2018-06-29T09:07:47.363Z,10.20
2018-06-29T09:14:45.997Z,9.40
2018-06-29T09:34:04.626Z,11.20
2018-06-29T09:36:09.470Z,14.23
2018-06-29T09:38:12.428Z,11.30
2018-06-29T09:40:15.653Z,9.77
2018-06-29T09:42:19.168Z,10.60
2018-06-29T09:44:23.847Z,10.90
2018-06-29T09:46:26.513Z,10.93
2018-06-29T09:50:51.475Z,10.30
2018-06-29T09:52:54.436Z,9.37
2018-06-29T09:54:57.701Z,10.00
2018-06-29T09:59:35.093Z,10.43
2018-06-29T10:01:44.215Z,10.17
2018-06-29T10:03:47.208Z,12.27
2018-06-29T10:05:50.163Z,9.73
2018-06-29T10:07:54.561Z,10.37
2018-06-29T10:09:57.418Z,296.37
2018-06-29T10:12:00.555Z,102.73
2018-06-29T10:14:03.790Z,65.93
2018-06-29T10:16:06.944Z,59.43
2018-06-29T10:18:09.744Z,53.43
2018-06-29T10:20:12.907Z,51.00
2018-06-29T10:22:15.944Z,45.33
2018-06-29T10:24:19.760Z,42.60
2018-06-29T10:26:23.198Z,39.90
2018-06-29T10:28:26.481Z,36.37
2018-06-29T10:30:29.980Z,34.43
2018-06-29T10:32:33.251Z,35.30
2018-06-29T10:34:36.237Z,33.73
2018-06-29T10:36:39.276Z,30.37
2018-06-29T10:38:42.644Z,31.53
2018-06-29T10:40:45.589Z,28.00
2018-06-29T10:42:48.881Z,29.10
2018-06-29T10:44:52.401Z,27.80
2018-06-29T10:46:55.778Z,25.07
2018-06-29T10:48:59.058Z,24.30
2018-06-29T10:51:02.508Z,24.23
2018-06-29T10:53:05.653Z,22.33
2018-06-29T10:55:08.763Z,24.17
2018-06-29T10:57:12.023Z,22.40
2018-06-29T10:59:15.025Z,19.70
2018-06-29T11:01:18.150Z,19.43
2018-06-29T11:03:21.715Z,19.70
2018-06-29T11:05:24.837Z,18.67
2018-06-29T11:07:27.948Z,18.47
2018-06-29T11:09:31.249Z,18.90
2018-06-29T11:11:34.391Z,18.07
2018-06-29T11:13:37.640Z,21.20
2018-06-29T11:15:40.929Z,19.17
2018-06-29T11:17:43.997Z,17.90
2018-06-29T11:19:47.323Z,17.43
2018-06-29T11:21:50.274Z,18.63
2018-06-29T11:23:53.584Z,15.43
2018-06-29T11:25:57.055Z,17.50
2018-06-29T11:28:00.053Z,15.57
2018-06-29T11:30:03.574Z,16.07
2018-06-29T11:32:06.594Z,15.87
2018-06-29T11:34:09.729Z,14.23
2018-06-29T11:36:13.007Z,15.70
2018-06-29T11:38:16.297Z,13.43
2018-06-29T11:40:19.371Z,14.10
2018-06-29T11:42:22.654Z,14.27
2018-06-29T11:44:25.547Z,14.83
2018-06-29T11:46:28.534Z,14.20
2018-06-29T11:48:31.826Z,12.40
2018-06-29T11:50:34.806Z,12.63
2018-06-29T11:52:38.343Z,13.60
2018-06-29T11:54:41.493Z,12.20
2018-06-29T11:56:44.669Z,14.57
2018-06-29T11:58:48.100Z,16.37
2018-06-29T12:00:51.261Z,14.30
2018-06-29T12:02:54.881Z,13.30
2018-06-29T12:04:58.194Z,12.70
2018-06-29T12:07:01.612Z,13.70
2018-06-29T12:09:04.419Z,13.17
2018-06-29T12:11:07.437Z,13.40
2018-06-29T12:13:10.619Z,11.77
2018-06-29T12:15:13.938Z,12.30
2018-06-29T12:17:16.762Z,12.87
2018-06-29T12:19:20.080Z,13.50
2018-06-29T12:21:23.261Z,12.93
2018-06-29T12:23:26.610Z,13.80
2018-06-29T12:25:29.911Z,13.70
2018-06-29T12:27:33.027Z,12.50
2018-06-29T12:29:36.209Z,13.37
2018-06-29T12:31:39.293Z,12.07
2018-06-29T12:33:42.484Z,14.70
2018-06-29T12:35:45.679Z,13.67
2018-06-29T12:37:48.959Z,13.80
2018-06-29T12:39:52.107Z,14.37
2018-06-29T12:41:55.462Z,12.53
2018-06-29T12:43:58.656Z,13.57
2018-06-29T12:46:01.642Z,14.90
2018-06-29T12:48:04.691Z,14.20
2018-06-29T12:50:07.983Z,14.77
2018-06-29T12:52:11.319Z,13.70
2018-06-29T12:54:14.481Z,13.70
2018-06-29T12:56:17.678Z,14.60
2018-06-29T12:58:20.803Z,13.40
2018-06-29T13:00:24.237Z,14.00
2018-06-29T13:02:27.454Z,14.60
2018-06-29T13:04:30.525Z,13.40
2018-06-29T13:06:34.957Z,14.90
2018-06-29T13:08:38.562Z,15.00
2018-06-29T13:10:43.552Z,14.43
2018-06-29T13:12:47.034Z,13.73
2018-06-29T13:14:50.062Z,15.90
2018-06-29T13:16:53.023Z,15.27
2018-06-29T13:18:56.534Z,16.60
2018-06-29T13:20:59.774Z,15.50
2018-06-29T13:23:03.017Z,18.50
2018-06-29T13:25:06.312Z,16.47
2018-06-29T13:27:09.700Z,18.07
2018-06-29T13:29:13.069Z,16.10
2018-06-29T13:31:16.061Z,15.20
2018-06-29T13:33:19.157Z,15.80
2018-06-29T13:35:22.327Z,17.43
2018-06-29T13:37:25.516Z,17.50
2018-06-29T13:39:28.848Z,17.20
2018-06-29T13:41:32.755Z,16.00
2018-06-29T13:43:35.703Z,18.27
2018-06-29T13:45:38.786Z,17.07
2018-06-29T13:47:41.999Z,17.60
2018-06-29T13:49:45.053Z,16.60
2018-06-29T13:51:48.258Z,16.60
2018-06-29T13:53:51.346Z,16.83
2018-06-29T13:55:54.412Z,17.23
2018-06-29T13:57:57.601Z,16.33
2018-06-29T14:00:00.488Z,18.33
2018-06-29T14:02:03.806Z,17.83
2018-06-29T14:04:06.965Z,16.73
2018-06-29T14:06:09.839Z,18.53
2018-06-29T14:08:12.839Z,17.37
2018-06-29T14:10:15.810Z,19.43
2018-06-29T14:12:18.778Z,19.30
2018-06-29T14:14:21.858Z,19.97
2018-06-29T14:16:24.861Z,18.13
2018-06-29T14:18:27.851Z,18.17
2018-06-29T14:20:30.953Z,18.10
2018-06-29T14:22:34.321Z,18.20
2018-06-29T14:24:37.316Z,18.40
2018-06-29T14:26:40.502Z,18.40
2018-06-29T14:28:43.473Z,18.73
2018-06-29T14:30:46.461Z,17.83
2018-06-29T14:32:49.515Z,18.27
2018-06-29T14:34:52.757Z,17.83
2018-06-29T14:36:55.828Z,17.30
2018-06-29T14:38:58.704Z,18.27
2018-06-29T14:41:02.068Z,17.93
2018-06-29T14:43:05.911Z,19.70
2018-06-29T14:45:10.536Z,18.60
2018-06-29T14:47:13.780Z,19.40
2018-06-29T14:49:17.127Z,17.90
2018-06-29T14:51:20.200Z,19.03
2018-06-29T14:53:23.394Z,18.90
2018-06-29T14:55:26.468Z,18.77
2018-06-29T14:57:29.522Z,17.67
2018-06-29T14:59:32.735Z,18.67
2018-06-29T15:01:36.433Z,16.73
2018-06-29T15:03:39.420Z,17.43
2018-06-29T15:05:42.342Z,16.93
2018-06-29T15:07:45.280Z,18.30
2018-06-29T15:09:48.267Z,16.83
2018-06-29T15:11:51.352Z,17.23
2018-06-29T15:13:54.671Z,19.10
2018-06-29T15:15:57.491Z,19.43
2018-06-29T15:18:00.306Z,18.10
2018-06-29T15:20:03.394Z,18.17
2018-06-29T15:22:06.472Z,18.60
2018-06-29T15:24:09.690Z,19.00
2018-06-29T15:26:12.708Z,19.90
2018-06-29T15:28:16.158Z,18.67
2018-06-29T15:30:19.233Z,18.40
2018-06-29T15:32:22.948Z,18.40
2018-06-29T15:34:26.020Z,18.43
2018-06-29T15:36:29.198Z,18.73
2018-06-29T15:38:32.271Z,18.27
2018-06-29T15:40:35.381Z,18.30
2018-06-29T15:42:39.742Z,18.63
2018-06-29T15:44:42.673Z,18.00
2018-06-29T15:46:45.762Z,18.03
2018-06-29T15:48:49.003Z,19.50
2018-06-29T15:50:52.049Z,22.63
2018-06-29T15:52:55.119Z,30.00
2018-06-29T15:54:58.003Z,31.67
2018-06-29T15:57:00.626Z,32.83
2018-06-29T15:59:03.683Z,39.30
2018-06-29T16:01:06.648Z,37.57
2018-06-29T16:03:09.625Z,35.53
2018-06-29T16:05:12.720Z,38.87
2018-06-29T16:07:15.695Z,46.23
2018-06-29T16:09:18.897Z,38.63
2018-06-29T16:11:21.762Z,38.87
2018-06-29T16:13:24.965Z,47.87
2018-06-29T16:15:28.447Z,44.87
2018-06-29T16:17:31.237Z,43.60
2018-06-29T16:19:34.107Z,38.63
2018-06-29T16:21:37.103Z,45.50
2018-06-29T16:23:40.071Z,35.93
2018-06-29T16:25:43.180Z,40.20
2018-06-29T16:27:46.254Z,44.77
2018-06-29T16:29:49.227Z,42.37
2018-06-29T16:31:52.320Z,46.60
2018-06-29T16:33:56.981Z,45.37
2018-06-29T16:36:00.167Z,41.83
2018-06-29T16:38:03.218Z,39.77
2018-06-29T16:40:06.195Z,44.90
2018-06-29T16:42:09.452Z,44.90
2018-06-29T16:44:12.270Z,40.37
2018-06-29T16:46:15.247Z,41.10
2018-06-29T16:48:18.442Z,39.60
2018-06-29T16:50:21.543Z,43.00
2018-06-29T16:52:24.620Z,47.87
2018-06-29T16:54:27.589Z,41.90
2018-06-29T16:56:30.473Z,40.10
2018-06-29T16:58:33.360Z,40.80
2018-06-29T17:00:36.456Z,36.77
2018-06-29T17:02:39.526Z,34.37
2018-06-29T17:04:42.627Z,42.43
2018-06-29T17:06:45.704Z,42.20
2018-06-29T17:08:48.770Z,38.93
2018-06-29T17:10:55.220Z,42.13
2018-06-29T17:13:01.664Z,39.90
2018-06-29T17:15:04.704Z,41.53
2018-06-29T17:17:07.896Z,38.50
2018-06-29T17:19:10.867Z,43.70
2018-06-29T17:21:13.872Z,36.43
2018-06-29T17:23:17.048Z,34.33
2018-06-29T17:25:20.025Z,35.43
2018-06-29T17:27:23.108Z,34.77
2018-06-29T17:29:26.236Z,37.77
2018-06-29T17:31:29.174Z,39.30
2018-06-29T17:33:32.414Z,37.80
2018-06-29T17:35:36.510Z,41.63
2018-06-29T17:37:39.456Z,40.47
2018-06-29T17:39:42.333Z,36.67
2018-06-29T17:41:45.153Z,33.57
2018-06-29T17:43:47.962Z,34.03
2018-06-29T17:45:51.116Z,35.70
2018-06-29T17:47:54.166Z,32.47
2018-06-29T17:49:57.274Z,36.00
2018-06-29T17:52:00.346Z,36.33
2018-06-29T17:54:03.448Z,35.20
2018-06-29T17:56:06.516Z,32.20
2018-06-29T17:58:09.505Z,35.50
2018-06-29T18:00:12.249Z,34.57
2018-06-29T18:02:15.330Z,35.40
2018-06-29T18:04:18.257Z,34.37
2018-06-29T18:06:21.334Z,34.33
2018-06-29T18:08:24.356Z,35.70
2018-06-29T18:10:27.197Z,35.87
2018-06-29T18:12:30.079Z,32.70
2018-06-29T18:14:33.162Z,31.90
2018-06-29T18:16:36.143Z,33.97
2018-06-29T18:18:40.961Z,31.57
2018-06-29T18:20:44.369Z,29.60
2018-06-29T18:22:47.361Z,29.13
2018-06-29T18:24:50.332Z,31.83
2018-06-29T18:26:53.323Z,31.60
2018-06-29T18:28:56.399Z,32.60
2018-06-29T18:30:59.397Z,30.23
2018-06-29T18:33:02.264Z,30.70
2018-06-29T18:35:05.249Z,35.13
2018-06-29T18:37:08.256Z,28.90
2018-06-29T18:39:11.325Z,33.17
2018-06-29T18:41:14.516Z,29.67
2018-06-29T18:43:17.589Z,29.47
2018-06-29T18:45:20.688Z,27.80
2018-06-29T18:47:23.678Z,27.13
2018-06-29T18:49:26.546Z,29.30
2018-06-29T18:51:29.526Z,28.30
2018-06-29T18:53:32.629Z,30.10
2018-06-29T18:55:35.602Z,27.77
2018-06-29T18:57:38.613Z,27.13
2018-06-29T18:59:41.664Z,25.33
2018-06-29T19:01:44.885Z,27.43
2018-06-29T19:03:47.945Z,25.50
2018-06-29T19:05:51.137Z,28.60
2018-06-29T19:07:54.231Z,27.77
2018-06-29T19:09:57.287Z,28.30
2018-06-29T19:12:00.305Z,26.37
2018-06-29T19:14:03.582Z,27.20
2018-06-29T19:16:06.465Z,28.00
2018-06-29T19:18:09.565Z,25.97
2018-06-29T19:20:12.625Z,24.40
2018-06-29T19:22:15.713Z,24.90
2018-06-29T19:24:18.817Z,24.10
2018-06-29T19:26:21.883Z,22.60
2018-06-29T19:28:25.001Z,23.87
2018-06-29T19:30:27.806Z,24.73
2018-06-29T19:32:30.555Z,24.93
2018-06-29T19:34:33.631Z,25.17
2018-06-29T19:36:36.843Z,24.60
2018-06-29T19:38:39.860Z,26.17
2018-06-29T19:40:43.032Z,24.23
2018-06-29T19:42:45.808Z,23.67
2018-06-29T19:44:48.644Z,23.17
2018-06-29T19:46:51.719Z,23.63
2018-06-29T19:48:54.904Z,24.40
2018-06-29T19:50:57.954Z,25.23
2018-06-29T19:53:00.981Z,24.07
2018-06-29T19:55:04.082Z,24.73
2018-06-29T19:57:07.153Z,24.60
2018-06-29T19:59:10.452Z,23.93
2018-06-29T20:01:13.219Z,22.13
2018-06-29T20:03:16.214Z,24.23
2018-06-29T20:05:19.398Z,24.47
2018-06-29T20:07:22.378Z,25.40
2018-06-29T20:09:25.476Z,24.23
2018-06-29T20:11:28.826Z,27.13
2018-06-29T20:13:31.738Z,24.83
2018-06-29T20:15:34.679Z,24.37
2018-06-29T20:17:38.404Z,23.83
2018-06-29T20:19:41.298Z,24.00
2018-06-29T20:21:44.418Z,23.47
2018-06-29T20:23:47.707Z,24.80
2018-06-29T20:25:50.665Z,23.63
2018-06-29T20:27:53.898Z,23.90
2018-06-29T20:29:57.247Z,22.50
2018-06-29T20:32:00.342Z,24.80
2018-06-29T20:34:03.218Z,23.10
2018-06-29T20:36:05.924Z,24.03
2018-06-29T20:38:09.700Z,23.20
2018-06-29T20:40:12.780Z,22.83
2018-06-29T20:42:16.291Z,23.20
2018-06-29T20:44:19.569Z,23.37
2018-06-29T20:46:22.765Z,23.73
2018-06-29T20:48:25.735Z,25.30
2018-06-29T20:50:28.721Z,25.67
2018-06-29T20:52:31.502Z,29.50
2018-06-29T20:54:34.486Z,26.20
2018-06-29T20:56:37.661Z,24.50
2018-06-29T20:58:40.545Z,25.60
2018-06-29T21:00:43.940Z,25.80
2018-06-29T21:02:47.127Z,26.73
2018-06-29T21:04:50.583Z,25.93
2018-06-29T21:06:53.605Z,25.13
2018-06-29T21:08:56.818Z,26.07
2018-06-29T21:11:00.210Z,28.70
2018-06-29T21:13:03.075Z,26.63
2018-06-29T21:15:06.064Z,26.13
2018-06-29T21:17:09.244Z,27.30
2018-06-29T21:19:12.228Z,24.47
2018-06-29T21:21:15.398Z,25.63
2018-06-29T21:23:19.662Z,28.73
2018-06-29T21:25:22.723Z,25.50
2018-06-29T21:27:25.942Z,25.57
2018-06-29T21:29:28.788Z,30.37
2018-06-29T21:31:31.585Z,37.03
2018-06-29T21:33:34.678Z,38.80
2018-06-29T21:35:37.942Z,40.37
2018-06-29T21:37:41.233Z,44.20
2018-06-29T21:39:44.428Z,46.63
2018-06-29T21:41:47.814Z,47.17
2018-06-29T21:43:50.798Z,48.20
2018-06-29T21:45:53.894Z,47.30
2018-06-29T21:47:57.065Z,47.60
2018-06-29T21:50:00.260Z,50.60
2018-06-29T21:52:03.351Z,51.57
2018-06-29T21:54:06.417Z,57.90
2018-06-29T21:56:09.410Z,55.37
2018-06-29T21:58:12.524Z,56.97
2018-06-29T22:00:15.635Z,110.63
2018-06-29T22:02:18.781Z,148.37
2018-06-29T22:04:22.396Z,86.00
2018-06-29T22:06:25.343Z,87.40
2018-06-29T22:08:29.287Z,108.47
2018-06-29T22:10:32.425Z,96.67
2018-06-29T22:12:35.639Z,99.53
2018-06-29T22:14:38.827Z,107.43
2018-06-29T22:16:41.786Z,104.80
2018-06-29T22:18:44.895Z,100.93
2018-06-29T22:20:47.783Z,79.37
2018-06-29T22:22:50.710Z,82.20
2018-06-29T22:24:53.934Z,78.20
2018-06-29T22:26:56.894Z,70.90
2018-06-29T22:28:59.868Z,64.07
2018-06-29T22:33:18.598Z,66.27
2018-06-29T22:35:21.551Z,57.47
2018-06-29T22:37:24.651Z,65.20
2018-06-29T22:39:27.599Z,60.70
2018-06-29T22:41:30.614Z,76.57
2018-06-29T22:43:33.604Z,62.10
2018-06-29T22:45:36.373Z,63.70
2018-06-29T22:47:39.467Z,59.20
2018-06-29T22:49:42.471Z,59.10
2018-06-29T22:51:45.239Z,65.27
2018-06-29T22:53:48.408Z,51.43
2018-06-29T22:55:51.196Z,47.50
2018-06-29T22:57:54.172Z,51.60
2018-06-29T22:59:57.471Z,49.77
2018-06-29T23:02:00.243Z,46.37
2018-06-29T23:04:03.343Z,46.33
2018-06-29T23:06:06.431Z,48.07
2018-06-29T23:08:09.633Z,48.90
2018-06-29T23:10:12.390Z,52.33
2018-06-29T23:12:16.529Z,46.63
2018-06-29T23:14:19.499Z,46.93
2018-06-29T23:16:22.457Z,43.47
2018-06-29T23:18:25.652Z,45.80
2018-06-29T23:20:28.749Z,48.03
2018-06-29T23:22:31.717Z,44.60
2018-06-29T23:24:34.806Z,44.53
2018-06-29T23:26:37.886Z,42.37
2018-06-29T23:28:40.862Z,49.60
2018-06-29T23:30:43.854Z,46.27
2018-06-29T23:32:46.943Z,43.27
2018-06-29T23:34:49.920Z,40.83
2018-06-29T23:36:53.132Z,42.20
2018-06-29T23:38:56.206Z,40.80
2018-06-29T23:40:59.287Z,46.80
2018-06-29T23:43:02.604Z,44.37
2018-06-29T23:45:05.470Z,45.77
2018-06-29T23:47:08.670Z,42.50
2018-06-29T23:49:11.736Z,52.83
2018-06-29T23:51:15.238Z,41.37
2018-06-29T23:53:18.223Z,42.13
2018-06-29T23:55:21.535Z,43.00
2018-06-29T23:57:24.377Z,42.03
2018-06-29T23:59:27.475Z,42.97
